createdAt,value
2017-04-23T05:35:36.480Z,1816
2017-04-23T05:36:17.054Z,1832
2017-04-23T05:36:58.074Z,1892
2017-04-23T05:37:38.636Z,1972
2017-04-23T05:38:19.772Z,2000
2017-04-23T05:39:00.801Z,2036
2017-04-23T05:39:41.536Z,2100
2017-04-23T05:40:22.117Z,2108
2017-04-23T05:41:02.688Z,2052
2017-04-23T05:41:43.266Z,2044
2017-04-23T05:42:23.831Z,2156
2017-04-23T05:43:04.415Z,2296
2017-04-23T05:43:44.991Z,2376
2017-04-23T05:44:25.552Z,2404
2017-04-23T05:45:06.134Z,2412
2017-04-23T05:45:46.708Z,2428
2017-04-23T05:46:27.280Z,2516
2017-04-23T05:47:07.868Z,2620
2017-04-23T05:47:48.448Z,2640
2017-04-23T05:48:29.013Z,2588
2017-04-23T05:49:09.596Z,2528
2017-04-23T05:49:50.178Z,2448
2017-04-23T05:50:30.755Z,2404
2017-04-23T05:51:11.342Z,2460
2017-04-23T05:51:51.915Z,2516
2017-04-23T05:52:32.502Z,2592
2017-04-23T05:53:13.065Z,2720
2017-04-23T05:53:53.641Z,2924
2017-04-23T05:54:34.222Z,3100
2017-04-23T05:55:14.820Z,3204
2017-04-23T05:55:55.387Z,3264
2017-04-23T05:56:35.969Z,3204
2017-04-23T05:57:16.548Z,3088
2017-04-23T05:57:57.121Z,3012
2017-04-23T05:58:37.703Z,3044
2017-04-23T05:59:18.276Z,3136
2017-04-23T05:59:58.860Z,3244
2017-04-23T06:00:39.445Z,3408
2017-04-23T06:01:20.031Z,3572
2017-04-23T06:02:00.614Z,3624
2017-04-23T06:02:41.193Z,3624
2017-04-23T06:03:21.776Z,3592
2017-04-23T06:04:02.375Z,3572
2017-04-23T06:04:42.954Z,3560
2017-04-23T06:05:25.269Z,3596
2017-04-23T06:06:05.848Z,3652
2017-04-23T06:06:46.428Z,3692
2017-04-23T06:07:27.001Z,3752
2017-04-23T06:08:07.583Z,3844
2017-04-23T06:08:48.162Z,3908
2017-04-23T06:09:28.746Z,3924
2017-04-23T06:10:09.324Z,3916
2017-04-23T06:10:49.896Z,3896
2017-04-23T06:11:30.471Z,3876
2017-04-23T06:12:11.052Z,3800
2017-04-23T06:12:51.627Z,3756
2017-04-23T06:13:32.208Z,3868
2017-04-23T06:14:12.785Z,4180
2017-04-23T06:14:53.355Z,4540
2017-04-23T06:15:33.940Z,4896
2017-04-23T06:16:14.517Z,5092
2017-04-23T06:16:55.090Z,5060
2017-04-23T06:17:35.675Z,4992
2017-04-23T06:18:16.258Z,4948
2017-04-23T06:18:56.842Z,5224
2017-04-23T06:19:37.419Z,5416
2017-04-23T06:20:17.998Z,5620
2017-04-23T06:20:58.579Z,5720
2017-04-23T06:21:39.159Z,5692
2017-04-23T06:22:19.735Z,5540
2017-04-23T06:23:00.316Z,5404
2017-04-23T06:23:40.891Z,5384
2017-04-23T06:24:21.465Z,5420
2017-04-23T06:25:02.051Z,5520
2017-04-23T06:25:42.629Z,5628
2017-04-23T06:26:23.555Z,5656
2017-04-23T06:27:04.135Z,5844
2017-04-23T06:27:44.926Z,6108
2017-04-23T06:28:25.506Z,6296
2017-04-23T06:29:06.247Z,6512
2017-04-23T06:29:47.222Z,6716
2017-04-23T06:30:27.974Z,6864
2017-04-23T06:31:08.550Z,7132
2017-04-23T06:31:49.243Z,7448
2017-04-23T06:32:30.038Z,7592
2017-04-23T06:33:10.881Z,7768
2017-04-23T06:33:51.673Z,7504
2017-04-23T06:34:32.244Z,7300
2017-04-23T06:35:12.893Z,8880
2017-04-23T06:35:53.475Z,7208
2017-04-23T06:36:34.531Z,7256
2017-04-23T06:37:15.124Z,6964
2017-04-23T06:37:55.743Z,6712
2017-04-23T06:38:36.504Z,6512
2017-04-23T06:39:17.451Z,6492
2017-04-23T06:39:58.362Z,6540
2017-04-23T06:40:39.321Z,6632
2017-04-23T06:41:20.123Z,6848
2017-04-23T06:42:00.906Z,7052
2017-04-23T06:42:41.700Z,7224
2017-04-23T06:43:22.693Z,7260
2017-04-23T06:44:03.517Z,7088
2017-04-23T06:44:44.716Z,7116
2017-04-23T06:45:26.325Z,7016
2017-04-23T06:46:07.083Z,6832
2017-04-23T06:46:47.664Z,6872
2017-04-23T06:47:28.506Z,6864
2017-04-23T06:48:09.393Z,6840
2017-04-23T06:48:50.522Z,6760
2017-04-23T06:49:31.660Z,6640
2017-04-23T06:50:12.971Z,6528
2017-04-23T06:50:53.669Z,6380
2017-04-23T06:51:34.420Z,6076
2017-04-23T06:52:15.285Z,5708
2017-04-23T06:52:56.227Z,5448
2017-04-23T06:53:37.246Z,5284
2017-04-23T06:54:18.210Z,5048
2017-04-23T06:54:59.348Z,4876
2017-04-23T06:55:40.062Z,4796
2017-04-23T06:56:21.500Z,4724
2017-04-23T06:57:02.891Z,4636
2017-04-23T06:57:43.654Z,4532
2017-04-23T06:58:24.224Z,4612
2017-04-23T06:59:04.800Z,4876
2017-04-23T06:59:45.486Z,5096
2017-04-23T07:00:26.454Z,5388
2017-04-23T07:01:07.043Z,5580
2017-04-23T07:01:47.993Z,5692
2017-04-23T07:02:28.593Z,5800
2017-04-23T07:03:09.172Z,5744
2017-04-23T07:03:49.821Z,5812
2017-04-23T07:04:30.403Z,5936
2017-04-23T07:05:10.987Z,5880
2017-04-23T07:05:51.571Z,5828
2017-04-23T07:06:32.780Z,5960
2017-04-23T07:07:13.354Z,6276
2017-04-23T07:07:54.487Z,6532
2017-04-23T07:08:35.060Z,6756
2017-04-23T07:09:15.632Z,6836
2017-04-23T07:09:56.696Z,6824
2017-04-23T07:10:37.422Z,6736
2017-04-23T07:11:18.487Z,6964
2017-04-23T07:11:59.063Z,7300
2017-04-23T07:12:39.849Z,7540
2017-04-23T07:13:20.427Z,7608
2017-04-23T07:14:01.029Z,7560
2017-04-23T07:14:41.672Z,7596
2017-04-23T07:15:22.260Z,7932
2017-04-23T07:16:03.104Z,8512
2017-04-23T07:16:43.858Z,9020
2017-04-23T07:17:24.450Z,9436
2017-04-23T07:18:05.394Z,9692
2017-04-23T07:18:46.007Z,10880
2017-04-23T07:19:27.079Z,9772
2017-04-23T07:20:07.785Z,9584
2017-04-23T07:20:48.777Z,9928
2017-04-23T07:21:29.629Z,10264
2017-04-23T07:22:10.741Z,10340
2017-04-23T07:22:51.662Z,10268
2017-04-23T07:23:32.423Z,10364
2017-04-23T07:24:13.178Z,10572
2017-04-23T07:24:53.893Z,10840
2017-04-23T07:25:34.688Z,10804
2017-04-23T07:26:15.403Z,10580
2017-04-23T07:26:57.054Z,10672
2017-04-23T07:27:37.643Z,11800
2017-04-23T07:28:18.503Z,12192
2017-04-23T07:28:58.871Z,11260
2017-04-23T07:29:39.461Z,11240
2017-04-23T07:30:21.011Z,11420
2017-04-23T07:31:02.003Z,11156
2017-04-23T07:31:42.837Z,10632
2017-04-23T07:32:23.564Z,10424
2017-04-23T07:33:04.618Z,10504
2017-04-23T07:33:45.494Z,10464
2017-04-23T07:34:26.784Z,10152
2017-04-23T07:35:07.604Z,9944
2017-04-23T07:35:49.027Z,9924
2017-04-23T07:36:29.608Z,9724
2017-04-23T07:37:10.270Z,9220
2017-04-23T07:37:51.046Z,8684
2017-04-23T07:38:31.844Z,8492
2017-04-23T07:39:12.612Z,8588
2017-04-23T07:39:53.509Z,8788
2017-04-23T07:40:34.092Z,9312
2017-04-23T07:41:15.024Z,9968
2017-04-23T07:41:56.003Z,10412
2017-04-23T07:42:36.613Z,10748
2017-04-23T07:43:17.392Z,11196
2017-04-23T07:43:58.234Z,11556
2017-04-23T07:44:39.498Z,11636
2017-04-23T07:45:19.927Z,11516
2017-04-23T07:46:00.513Z,13776
2017-04-23T07:46:41.261Z,11336
2017-04-23T07:47:21.848Z,11900
2017-04-23T07:48:02.756Z,14636
2017-04-23T07:48:43.536Z,15272
2017-04-23T07:49:24.119Z,13220
2017-04-23T07:50:04.816Z,12728
2017-04-23T07:50:45.582Z,11508
2017-04-23T07:51:26.284Z,11540
2017-04-23T07:52:07.497Z,12624
2017-04-23T07:52:48.164Z,9756
2017-04-23T07:53:28.751Z,8628
2017-04-23T07:54:09.775Z,8020
2017-04-23T07:54:50.375Z,7928
2017-04-23T07:55:31.224Z,8276
2017-04-23T07:56:11.806Z,8556
2017-04-23T07:56:52.388Z,8248
2017-04-23T07:57:33.222Z,7876
2017-04-23T07:58:14.071Z,8176
2017-04-23T07:58:54.634Z,9200
2017-04-23T07:59:35.698Z,10424
2017-04-23T08:00:16.280Z,11532
2017-04-23T08:00:57.281Z,13520
2017-04-23T08:01:38.070Z,14316
2017-04-23T08:02:19.000Z,12884
2017-04-23T08:02:59.838Z,12460
2017-04-23T08:03:41.208Z,11552
2017-04-23T08:04:22.084Z,10772
2017-04-23T08:05:03.170Z,9864
2017-04-23T08:05:43.814Z,9492
2017-04-23T08:06:24.784Z,10216
2017-04-23T08:07:05.549Z,11800
2017-04-23T08:07:46.402Z,13392
2017-04-23T08:08:27.179Z,14784
2017-04-23T08:09:08.512Z,15404
2017-04-23T08:09:49.771Z,14464
2017-04-23T08:10:30.422Z,13528
2017-04-23T08:11:11.189Z,13396
2017-04-23T08:11:51.962Z,14192
2017-04-23T08:12:32.737Z,15616
2017-04-23T08:13:13.482Z,17832
2017-04-23T08:13:54.258Z,18028
2017-04-23T08:14:35.121Z,17968
2017-04-23T08:15:16.479Z,17060
2017-04-23T08:15:57.545Z,16264
2017-04-23T08:16:38.360Z,15992
2017-04-23T08:17:18.955Z,15600
2017-04-23T08:17:59.784Z,15224
2017-04-23T08:18:40.702Z,14908
2017-04-23T08:19:21.551Z,14828
2017-04-23T08:20:02.404Z,14540
2017-04-23T08:20:43.392Z,13576
2017-04-23T08:21:23.972Z,12492
2017-04-23T08:22:05.037Z,11820
2017-04-23T08:22:46.174Z,11704
2017-04-23T08:23:26.872Z,12052
2017-04-23T08:24:07.456Z,12292
2017-04-23T08:24:48.496Z,12556
2017-04-23T08:25:29.322Z,13268
2017-04-23T08:26:10.402Z,11232
2017-04-23T08:26:51.200Z,9628
2017-04-23T08:27:32.408Z,8852
2017-04-23T08:28:13.294Z,8504
2017-04-23T08:28:53.875Z,8524
2017-04-23T08:29:34.940Z,8352
2017-04-23T08:30:15.661Z,8156
2017-04-23T08:30:56.358Z,7892
2017-04-23T08:31:37.072Z,8120
2017-04-23T08:32:18.093Z,8736
2017-04-23T08:32:59.237Z,9368
2017-04-23T08:33:40.293Z,10872
2017-04-23T08:34:21.147Z,12708
2017-04-23T08:35:01.730Z,13356
2017-04-23T08:35:42.342Z,13892
2017-04-23T08:36:22.912Z,15204
2017-04-23T08:37:03.684Z,16032
2017-04-23T08:37:44.517Z,15736
2017-04-23T08:38:25.105Z,15504
2017-04-23T08:39:05.873Z,16268
2017-04-23T08:39:46.666Z,16772
2017-04-23T08:40:27.494Z,17108
2017-04-23T08:41:08.063Z,15332
2017-04-23T08:41:48.647Z,12420
2017-04-23T08:42:29.236Z,10380
2017-04-23T08:43:09.827Z,9656
2017-04-23T08:43:50.416Z,9936
2017-04-23T08:44:30.997Z,10744
2017-04-23T08:45:11.576Z,11624
2017-04-23T08:45:52.152Z,11500
2017-04-23T08:46:32.735Z,13200
2017-04-23T08:47:13.318Z,15768
2017-04-23T08:47:53.911Z,16712
2017-04-23T08:48:34.496Z,16792
2017-04-23T08:51:07.682Z,16180
2017-04-23T08:51:48.244Z,14328
2017-04-23T08:52:28.798Z,14076
2017-04-23T08:53:09.360Z,13820
2017-04-23T08:53:49.938Z,14836
2017-04-23T08:54:37.346Z,16736
2017-04-23T08:55:17.927Z,16804
2017-04-23T08:55:58.510Z,14276
2017-04-23T08:56:39.082Z,12732
2017-04-23T08:57:34.461Z,12004
2017-04-23T08:58:15.297Z,12364
2017-04-23T08:58:55.892Z,12200
2017-04-23T08:59:36.529Z,11580
2017-04-23T09:00:17.102Z,10832
2017-04-23T09:00:57.841Z,10312
2017-04-23T09:01:38.689Z,10072
2017-04-23T09:02:19.699Z,9960
2017-04-23T09:03:00.759Z,9840
2017-04-23T09:03:41.816Z,9876
2017-04-23T09:04:22.756Z,9968
2017-04-23T09:05:03.412Z,10272
2017-04-23T09:05:43.996Z,10624
2017-04-23T09:06:24.590Z,10592
2017-04-23T09:07:05.166Z,10724
2017-04-23T09:07:45.756Z,11100
2017-04-23T09:08:26.342Z,11672
2017-04-23T09:09:06.927Z,12604
2017-04-23T09:09:47.511Z,14340
2017-04-23T09:10:28.095Z,16428
2017-04-23T09:11:08.681Z,18784
2017-04-23T09:11:49.276Z,19392
2017-04-23T09:12:29.836Z,21344
2017-04-23T09:13:10.411Z,23072
2017-04-23T09:13:51.434Z,23296
2017-04-23T09:14:32.155Z,22528
2017-04-23T09:15:13.380Z,21152
2017-04-23T09:15:54.656Z,18472
2017-04-23T09:16:35.526Z,17464
2017-04-23T09:17:16.112Z,16308
2017-04-23T09:17:56.945Z,15824
2017-04-23T09:18:37.840Z,15832
2017-04-23T09:19:18.652Z,14844
2017-04-23T09:19:59.221Z,13372
2017-04-23T09:20:39.807Z,12412
2017-04-23T09:21:20.742Z,11548
2017-04-23T09:22:01.323Z,10836
2017-04-23T09:22:41.901Z,10080
2017-04-23T09:23:22.475Z,9724
2017-04-23T09:24:03.068Z,9656
2017-04-23T09:24:43.847Z,10052
2017-04-23T09:25:24.421Z,10276
2017-04-23T09:26:05.000Z,10220
2017-04-23T09:26:45.584Z,10188
2017-04-23T09:27:26.157Z,10256
2017-04-23T09:28:06.740Z,11292
2017-04-23T09:28:47.360Z,12728
2017-04-23T09:29:28.112Z,16216
2017-04-23T09:30:08.794Z,16448
2017-04-23T09:30:49.387Z,16544
2017-04-23T09:31:29.954Z,16228
2017-04-23T09:32:10.543Z,16128
2017-04-23T09:32:51.132Z,15372
2017-04-23T09:33:31.706Z,15736
2017-04-23T09:34:12.292Z,17368
2017-04-23T09:34:53.145Z,19872
2017-04-23T09:35:33.744Z,17728
2017-04-23T09:36:14.453Z,14188
2017-04-23T09:36:55.036Z,12020
2017-04-23T09:37:35.616Z,10496
2017-04-23T09:38:16.192Z,9060
2017-04-23T09:38:56.768Z,7804
2017-04-23T09:39:37.800Z,6844
2017-04-23T09:40:18.619Z,6188
2017-04-23T09:40:59.332Z,5736
2017-04-23T09:41:39.913Z,5596
2017-04-23T09:42:20.497Z,5548
2017-04-23T09:43:01.083Z,5336
2017-04-23T09:43:41.658Z,5264
2017-04-23T09:44:22.244Z,5304
2017-04-23T09:45:02.816Z,5172
2017-04-23T09:45:43.402Z,5000
2017-04-23T09:46:23.988Z,4904
2017-04-23T09:47:04.645Z,4808
2017-04-23T09:47:45.226Z,5044
2017-04-23T09:48:25.802Z,5356
2017-04-23T09:49:06.386Z,5824
2017-04-23T09:49:46.969Z,6344
2017-04-23T09:50:27.632Z,7000
2017-04-23T09:51:08.221Z,7796
2017-04-23T09:51:49.057Z,8744
2017-04-23T09:52:29.897Z,9792
2017-04-23T09:53:10.482Z,10744
2017-04-23T09:53:51.053Z,11768
2017-04-23T09:54:31.639Z,12328
2017-04-23T09:55:12.223Z,13280
2017-04-23T09:55:52.802Z,14816
2017-04-23T09:56:33.408Z,15064
2017-04-23T09:57:14.021Z,14852
2017-04-23T09:57:54.595Z,14508
2017-04-23T09:58:35.168Z,14416
2017-04-23T09:59:15.881Z,14592
2017-04-23T09:59:56.466Z,14968
2017-04-23T10:00:37.273Z,15736
2017-04-23T10:01:18.138Z,16440
2017-04-23T10:01:58.717Z,17348
2017-04-23T10:02:39.295Z,17960
2017-04-23T10:03:19.961Z,18328
2017-04-23T10:04:00.528Z,19200
2017-04-23T10:04:41.106Z,20160
2017-04-23T10:05:21.663Z,19744
2017-04-23T10:06:02.250Z,18784
2017-04-23T10:06:42.821Z,18592
2017-04-23T10:07:23.400Z,17316
2017-04-23T10:08:03.984Z,15272
2017-04-23T10:08:44.564Z,13856
2017-04-23T10:09:25.149Z,13028
2017-04-23T10:10:05.727Z,12720
2017-04-23T10:10:46.311Z,12448
2017-04-23T10:11:26.897Z,12096
2017-04-23T10:12:07.477Z,11684
2017-04-23T10:12:48.060Z,11264
2017-04-23T10:13:28.642Z,11112
2017-04-23T10:14:09.220Z,11260
2017-04-23T10:14:49.814Z,11884
2017-04-23T10:15:30.387Z,12836
2017-04-23T10:16:10.969Z,13708
2017-04-23T10:16:51.556Z,14092
2017-04-23T10:17:32.136Z,13584
2017-04-23T10:18:12.718Z,13008
2017-04-23T10:18:53.309Z,13268
2017-04-23T10:19:33.893Z,13484
2017-04-23T10:20:14.472Z,15044
2017-04-23T10:20:55.059Z,15416
2017-04-23T10:21:35.641Z,16200
2017-04-23T10:22:16.220Z,17324
2017-04-23T10:22:56.804Z,17280
2017-04-23T10:23:37.387Z,16472
2017-04-23T10:24:17.968Z,15744
2017-04-23T10:24:58.551Z,14804
2017-04-23T10:25:39.136Z,12856
2017-04-23T10:26:19.722Z,11312
2017-04-23T10:27:00.305Z,10112
2017-04-23T10:27:40.883Z,8916
2017-04-23T10:28:21.468Z,7888
2017-04-23T10:29:02.037Z,7232
2017-04-23T10:29:42.616Z,6920
2017-04-23T10:30:23.200Z,6748
2017-04-23T10:31:03.787Z,6656
2017-04-23T10:31:44.370Z,6728
2017-04-23T10:32:24.951Z,7176
2017-04-23T10:34:42.887Z,9320
2017-04-23T10:35:23.467Z,9356
2017-04-23T10:36:04.049Z,9268
2017-04-23T10:36:44.630Z,9228
2017-04-23T10:37:25.216Z,9188
2017-04-23T10:38:05.809Z,9200
2017-04-23T10:38:46.380Z,9264
2017-04-23T10:39:26.961Z,9368
2017-04-23T10:40:08.729Z,9652
2017-04-23T10:40:49.330Z,9980
2017-04-23T10:41:30.304Z,10424
2017-04-23T10:42:10.527Z,11184
2017-04-23T10:42:52.777Z,11876
2017-04-23T10:43:32.928Z,12764
2017-04-23T10:44:13.946Z,14228
2017-04-23T10:44:54.785Z,14172
2017-04-23T10:45:36.794Z,13476
2017-04-23T10:46:17.782Z,14056
2017-04-23T10:46:58.257Z,14004
2017-04-23T10:47:39.733Z,14428
2017-04-23T10:49:58.263Z,15264
2017-04-23T10:52:18.138Z,16664
2017-04-23T10:52:59.103Z,16584
2017-04-23T10:53:39.349Z,16196
2017-04-23T10:54:19.929Z,15964
2017-04-23T10:55:00.511Z,16076
2017-04-23T10:55:41.097Z,16200
2017-04-23T10:56:21.668Z,16368
2017-04-23T10:57:02.251Z,16544
2017-04-23T10:57:42.954Z,16436
2017-04-23T10:58:23.527Z,16604
2017-04-23T10:59:04.092Z,16800
2017-04-23T10:59:44.920Z,16476
2017-04-23T11:00:25.763Z,15720
2017-04-23T11:01:06.618Z,15552
2017-04-23T11:01:47.203Z,15352
2017-04-23T11:02:27.767Z,14732
2017-04-23T11:03:08.403Z,15008
2017-04-23T11:03:48.997Z,15232
2017-04-23T11:04:29.658Z,15312
2017-04-23T11:05:10.238Z,16044
2017-04-23T11:05:50.820Z,15936
2017-04-23T11:06:31.398Z,15244
2017-04-23T11:07:11.990Z,14392
2017-04-23T11:07:52.572Z,14048
2017-04-23T11:08:33.148Z,14448
2017-04-23T11:09:13.727Z,14768
2017-04-23T11:09:54.310Z,15288
2017-04-23T11:10:34.884Z,15356
2017-04-23T11:11:15.465Z,15768
2017-04-23T11:11:56.043Z,15288
2017-04-23T11:12:36.622Z,14628
2017-04-23T11:13:17.210Z,14348
2017-04-23T11:13:57.783Z,13988
2017-04-23T11:14:38.373Z,13672
2017-04-23T11:15:18.958Z,13328
2017-04-23T11:15:59.547Z,13240
2017-04-23T11:16:40.124Z,13324
2017-04-23T11:17:20.701Z,13752
2017-04-23T11:18:01.281Z,13356
2017-04-23T11:18:41.867Z,13096
2017-04-23T11:19:22.450Z,12980
2017-04-23T11:20:03.026Z,13132
2017-04-23T11:20:43.611Z,12820
2017-04-23T11:21:24.194Z,12604
2017-04-23T11:22:04.774Z,12708
2017-04-23T11:22:45.356Z,12900
2017-04-23T11:23:25.940Z,13048
2017-04-23T11:24:06.519Z,13960
2017-04-23T11:24:47.101Z,14684
2017-04-23T11:25:27.684Z,15084
2017-04-23T11:26:08.265Z,15004
2017-04-23T11:26:48.843Z,14932
2017-04-23T11:27:29.415Z,15060
2017-04-23T11:28:09.995Z,14972
2017-04-23T11:28:50.561Z,14408
2017-04-23T11:29:31.154Z,13644
2017-04-23T11:30:11.743Z,13180
2017-04-23T11:30:52.315Z,12832
2017-04-23T11:31:32.904Z,12652
2017-04-23T11:32:13.481Z,12616
2017-04-23T11:32:54.064Z,12016
2017-04-23T11:33:34.637Z,12352
2017-04-23T11:34:15.230Z,13416
2017-04-23T11:34:55.815Z,12672
2017-04-23T11:35:36.391Z,12236
2017-04-23T11:36:16.994Z,11880
2017-04-23T11:36:57.693Z,11672
2017-04-23T11:37:38.271Z,11504
2017-04-23T11:38:19.384Z,11316
2017-04-23T11:39:00.398Z,11364
2017-04-23T11:39:41.239Z,11456
2017-04-23T11:40:21.821Z,11660
2017-04-23T11:41:02.420Z,11956
2017-04-23T11:41:43.285Z,12504
2017-04-23T11:42:24.263Z,12888
2017-04-23T11:43:05.421Z,12900
2017-04-23T11:43:46.009Z,12592
2017-04-23T11:44:26.599Z,12196
2017-04-23T11:45:07.323Z,11856
2017-04-23T11:45:47.910Z,11664
2017-04-23T11:46:28.496Z,11532
2017-04-23T11:47:09.079Z,11228
2017-04-23T11:47:49.661Z,11296
2017-04-23T11:48:30.239Z,11572
2017-04-23T11:49:10.825Z,11772
2017-04-23T11:49:51.401Z,11124
2017-04-23T11:50:31.988Z,11288
2017-04-23T11:51:12.565Z,11364
2017-04-23T11:51:54.293Z,11384
2017-04-23T11:52:34.884Z,11428
2017-04-23T11:53:15.463Z,11288
2017-04-23T11:53:56.034Z,11232
2017-04-23T11:54:36.618Z,11144
2017-04-23T11:55:17.202Z,11088
2017-04-23T11:55:57.787Z,11144
2017-04-23T11:56:38.370Z,11276
2017-04-23T11:57:18.968Z,11304
2017-04-23T11:57:59.530Z,11160
2017-04-23T11:58:40.103Z,10992
2017-04-23T11:59:20.687Z,10804
2017-04-23T12:00:01.249Z,11444
2017-04-23T12:00:41.821Z,11264
2017-04-23T12:01:22.400Z,10256
2017-04-23T12:02:02.962Z,9660
2017-04-23T12:02:43.535Z,9172
2017-04-23T12:03:24.103Z,8868
2017-04-23T12:04:04.773Z,8504
2017-04-23T12:04:45.315Z,8464
2017-04-23T12:05:25.888Z,8636
2017-04-23T12:06:06.556Z,9144
2017-04-23T12:06:47.129Z,9680
2017-04-23T12:07:27.697Z,11116
2017-04-23T12:08:08.277Z,11432
2017-04-23T12:08:48.844Z,12964
2017-04-23T12:09:29.422Z,12808
2017-04-23T12:10:09.992Z,12400
2017-04-23T12:10:50.559Z,11796
2017-04-23T12:11:31.133Z,11956
2017-04-23T12:12:11.695Z,10728
2017-04-23T12:12:52.285Z,10228
2017-04-23T12:13:32.874Z,9832
2017-04-23T12:14:13.442Z,9408
2017-04-23T12:14:54.017Z,9124
2017-04-23T12:15:34.575Z,8964
2017-04-23T12:16:15.149Z,9072
2017-04-23T12:16:55.732Z,9600
2017-04-23T12:17:36.286Z,10216
2017-04-23T12:18:16.855Z,10444
2017-04-23T12:18:57.428Z,10660
2017-04-23T12:19:38.000Z,10892
2017-04-23T12:20:18.575Z,11252
2017-04-23T12:20:59.146Z,11048
2017-04-23T12:21:39.723Z,11376
2017-04-23T12:22:20.293Z,11612
2017-04-23T12:23:00.868Z,11096
2017-04-23T12:23:41.448Z,11496
2017-04-23T12:24:22.086Z,11496
2017-04-23T12:25:02.666Z,11464
2017-04-23T12:25:43.250Z,11292
2017-04-23T12:26:24.063Z,10020
2017-04-23T12:27:04.650Z,10876
2017-04-23T12:27:45.222Z,9952
2017-04-23T12:28:25.860Z,9624
2017-04-23T12:29:06.507Z,9408
2017-04-23T12:29:47.117Z,9332
2017-04-23T12:30:27.697Z,9424
2017-04-23T12:31:08.276Z,9764
2017-04-23T12:31:48.963Z,10680
2017-04-23T12:32:29.543Z,10732
2017-04-23T12:33:10.315Z,10524
2017-04-23T12:33:50.896Z,10380
2017-04-23T12:34:31.482Z,10444
2017-04-23T12:35:12.060Z,10588
2017-04-23T12:35:52.641Z,10992
2017-04-23T12:36:33.218Z,11308
2017-04-23T12:37:13.804Z,12876
2017-04-23T12:37:54.377Z,12660
2017-04-23T12:38:35.065Z,12812
2017-04-23T12:39:15.657Z,13572
2017-04-23T12:39:56.559Z,12836
2017-04-23T12:40:37.713Z,13496
2017-04-23T12:41:18.782Z,12240
2017-04-23T12:41:59.490Z,11480
2017-04-23T12:42:40.286Z,11164
2017-04-23T12:43:21.268Z,11180
2017-04-23T12:44:02.007Z,11384
2017-04-23T12:44:42.589Z,11888
2017-04-23T12:45:23.630Z,11744
2017-04-23T12:46:04.253Z,10532
2017-04-23T12:46:44.997Z,10476
2017-04-23T12:47:25.583Z,10544
2017-04-23T12:48:06.362Z,10728
2017-04-23T12:48:47.136Z,10824
2017-04-23T12:49:28.014Z,10820
2017-04-23T12:50:08.954Z,10768
2017-04-23T12:50:49.743Z,11604
2017-04-23T12:51:30.590Z,12156
2017-04-23T12:52:11.173Z,11580
2017-04-23T12:52:51.755Z,12432
2017-04-23T12:53:32.332Z,11704
2017-04-23T12:54:12.913Z,11996
2017-04-23T12:54:53.492Z,11036
2017-04-23T12:55:34.076Z,10708
2017-04-23T12:56:14.654Z,10616
2017-04-23T12:56:55.240Z,10452
2017-04-23T12:57:35.822Z,9964
2017-04-23T12:58:16.405Z,10036
2017-04-23T12:58:56.987Z,9572
2017-04-23T12:59:37.568Z,10008
2017-04-23T13:00:18.152Z,10476
2017-04-23T13:00:58.744Z,10712
2017-04-23T13:01:39.310Z,10980
2017-04-23T13:02:19.891Z,11216
2017-04-23T13:03:00.477Z,11084
2017-04-23T13:03:41.061Z,10728
2017-04-23T13:04:21.645Z,10428
2017-04-23T13:05:02.228Z,10276
2017-04-23T13:05:42.814Z,9876
2017-04-23T13:06:23.399Z,9648
2017-04-23T13:07:04.353Z,10512
2017-04-23T13:07:45.197Z,11384
2017-04-23T13:08:26.021Z,11648
2017-04-23T13:09:06.837Z,11544
2017-04-23T13:09:47.570Z,11140
2017-04-23T13:10:28.447Z,12092
2017-04-23T13:11:09.159Z,12448
2017-04-23T13:11:50.323Z,12912
2017-04-23T13:12:31.131Z,12968
2017-04-23T13:13:11.741Z,11240
2017-04-23T13:13:52.313Z,10624
2017-04-23T13:14:33.138Z,10120
2017-04-23T13:15:13.935Z,9936
2017-04-23T13:15:54.846Z,9816
2017-04-23T13:16:35.955Z,9896
2017-04-23T13:17:17.215Z,11048
2017-04-23T13:17:58.071Z,10536
2017-04-23T13:18:38.729Z,10236
2017-04-23T13:19:19.514Z,9908
2017-04-23T13:20:00.644Z,9360
2017-04-23T13:20:41.671Z,9072
2017-04-23T13:21:23.210Z,10080
2017-04-23T13:22:03.894Z,9904
2017-04-23T13:22:44.527Z,10648
2017-04-23T13:23:25.314Z,10640
2017-04-23T13:24:05.904Z,10468
2017-04-23T13:24:46.566Z,10032
2017-04-23T13:25:27.321Z,10260
2017-04-23T13:26:08.363Z,10388
2017-04-23T13:26:49.079Z,10872
2017-04-23T13:27:29.753Z,11044
2017-04-23T13:28:10.571Z,12176
2017-04-23T13:28:51.725Z,10692
2017-04-23T13:29:32.340Z,10512
2017-04-23T13:30:13.451Z,10604
2017-04-23T13:30:54.609Z,10520
2017-04-23T13:31:35.445Z,10228
2017-04-23T13:32:16.375Z,9860
2017-04-23T13:32:57.356Z,9692
2017-04-23T13:33:38.435Z,9568
2017-04-23T13:34:19.595Z,9308
2017-04-23T13:35:00.392Z,8888
2017-04-23T13:35:40.972Z,8680
2017-04-23T13:36:21.556Z,8572
2017-04-23T13:37:02.497Z,8484
2017-04-23T13:37:43.306Z,9688
2017-04-23T13:38:23.952Z,8172
2017-04-23T13:39:04.946Z,8404
2017-04-23T13:39:45.609Z,8636
2017-04-23T13:40:26.181Z,10096
2017-04-23T13:41:06.950Z,10380
2017-04-23T13:41:47.544Z,9788
2017-04-23T13:42:28.676Z,10404
2017-04-23T13:43:09.510Z,10616
2017-04-23T13:43:50.247Z,10680
2017-04-23T13:44:30.822Z,10556
2017-04-23T13:45:11.811Z,10604
2017-04-23T13:45:52.848Z,10380
2017-04-23T13:46:33.435Z,10060
2017-04-23T13:47:14.020Z,8656
2017-04-23T13:47:54.877Z,8872
2017-04-23T13:48:35.652Z,8628
2017-04-23T13:49:16.254Z,8860
2017-04-23T13:49:56.989Z,8768
2017-04-23T13:50:37.918Z,8380
2017-04-23T13:51:18.712Z,7184
2017-04-23T13:51:59.282Z,8204
2017-04-23T13:52:40.137Z,8408
2017-04-23T13:53:20.716Z,8668
2017-04-23T13:54:01.600Z,7660
2017-04-23T13:54:42.187Z,8132
2017-04-23T13:55:22.845Z,9388
2017-04-23T13:56:03.430Z,9608
2017-04-23T13:56:44.464Z,9756
2017-04-23T13:57:25.053Z,9732
2017-04-23T13:58:05.813Z,9660
2017-04-23T13:58:46.751Z,9788
2017-04-23T13:59:27.618Z,8960
2017-04-23T14:00:08.454Z,10236
2017-04-23T14:00:49.223Z,10460
2017-04-23T14:01:30.031Z,10452
2017-04-23T14:02:10.956Z,10536
2017-04-23T14:02:51.702Z,10632
2017-04-23T14:03:32.331Z,10772
2017-04-23T14:04:12.959Z,10820
2017-04-23T14:04:53.540Z,10764
2017-04-23T14:05:34.328Z,10688
2017-04-23T14:06:15.201Z,10728
2017-04-23T14:06:55.763Z,10688
2017-04-23T14:07:36.345Z,10572
2017-04-23T14:08:17.121Z,8788
2017-04-23T14:08:57.876Z,8728
2017-04-23T14:09:38.451Z,8668
2017-04-23T14:10:19.048Z,8572
2017-04-23T14:11:00.445Z,8480
2017-04-23T14:11:41.170Z,8476
2017-04-23T14:12:21.750Z,8588
2017-04-23T14:13:02.392Z,8664
2017-04-23T14:13:42.965Z,8780
2017-04-23T14:14:23.543Z,8704
2017-04-23T14:15:04.124Z,8568
2017-04-23T14:15:44.696Z,8556
2017-04-23T14:16:25.665Z,8680
2017-04-23T14:17:06.288Z,8868
2017-04-23T14:17:47.178Z,8984
2017-04-23T14:18:28.009Z,9088
2017-04-23T14:19:08.636Z,9176
2017-04-23T14:19:49.279Z,9224
2017-04-23T14:20:30.028Z,9312
2017-04-23T14:21:11.634Z,9140
2017-04-23T14:21:51.557Z,8844
2017-04-23T14:22:32.236Z,8816
2017-04-23T14:23:12.949Z,9312
2017-04-23T14:23:53.535Z,8988
2017-04-23T14:24:34.254Z,9592
2017-04-23T14:25:15.077Z,10112
2017-04-23T14:25:55.818Z,9672
2017-04-23T14:26:37.230Z,7676
2017-04-23T14:27:17.866Z,7236
2017-04-23T14:27:58.747Z,7116
2017-04-23T14:28:39.574Z,7076
2017-04-23T14:29:20.150Z,6308
2017-04-23T14:30:00.782Z,6156
2017-04-23T14:30:41.367Z,6352
2017-04-23T14:31:21.944Z,8424
2017-04-23T14:32:02.541Z,6952
2017-04-23T14:32:43.102Z,7248
2017-04-23T14:33:23.690Z,7636
2017-04-23T14:34:04.250Z,7960